Time;durP1;ratioP1;P1;durP2;ratioP2;P2;SDS_P1;SDS_P2;PMS_P1;PMS_P2;Temp;Humidity;BMP_temperature;BMP_pressure;BME280_temperature;BME280_humidity;BME280_pressure;Samples;Min_cycle;Max_cycle;Signal;HPM_P1;HPM_P2
2022/09/08 00:02:17;;;;;;;24.50;17.17;;;;;;;;;;5094360;28;20386;-91
2022/09/08 00:04:43;;;;;;;19.80;16.15;;;;;;;;;;5071540;28;20051;-89
2022/09/08 00:07:09;;;;;;;17.88;16.10;;;17.30;99.90;;;;;;5056125;28;20532;-88
2022/09/08 00:09:35;;;;;;;18.30;16.40;;;;;;;;;;5039815;28;20089;-85
2022/09/08 00:12:03;;;;;;;19.55;16.85;;;17.10;99.90;;;;;;5056403;28;20049;-86
2022/09/08 00:14:32;;;;;;;18.63;16.63;;;17.00;99.90;;;;;;5055540;28;20106;-89
2022/09/08 00:16:58;;;;;;;17.65;15.68;;;;;;;;;;5075610;28;20040;-90
2022/09/08 00:19:25;;;;;;;17.85;15.98;;;;;;;;;;5076450;28;20043;-90
2022/09/08 00:21:51;;;;;;;17.25;15.55;;;;;;;;;;5075803;28;20048;-90
2022/09/08 00:24:17;;;;;;;18.27;15.20;;;;;;;;;;5075905;28;20047;-90
2022/09/08 00:26:44;;;;;;;21.58;14.90;;;;;;;;;;5062306;28;20039;-89
2022/09/08 00:29:10;;;;;;;19.40;15.05;;;;;;;;;;5072346;28;20054;-89
2022/09/08 00:31:40;;;;;;;20.38;15.80;;;17.20;99.90;;;;;;5072941;28;20044;-90
2022/09/08 00:34:06;;;;;;;20.38;16.02;;;;;;;;;;5039128;28;20135;-90
2022/09/08 00:36:33;;;;;;;17.63;14.60;;;;;;;;;;5046039;28;20392;-90
2022/09/08 00:39:00;;;;;;;20.88;16.33;;;17.20;99.90;;;;;;5081707;28;20051;-88
2022/09/08 00:41:28;;;;;;;23.75;15.35;;;17.20;99.90;;;;;;5096149;28;20087;-90
2022/09/08 00:44:00;;;;;;;15.73;14.02;;;17.20;99.90;;;;;;5079395;28;20125;-89
2022/09/08 00:46:33;;;;;;;16.80;15.05;;;17.10;99.90;;;;;;5081260;28;20052;-88
2022/09/08 00:49:06;;;;;;;20.02;14.73;;;16.60;99.90;;;;;;5075939;28;20448;-88
2022/09/08 00:51:32;;;;;;;15.55;13.50;;;;;;;;;;5059046;28;20392;-91
2022/09/08 00:53:59;;;;;;;15.57;14.07;;;;;;;;;;5092551;28;20036;-89
2022/09/08 00:56:27;;;;;;;15.77;14.15;;;17.00;99.90;;;;;;5074641;28;20090;-90
2022/09/08 00:58:54;;;;;;;23.13;14.25;;;17.00;99.90;;;;;;5075453;28;20134;-89
2022/09/08 01:01:20;;;;;;;17.27;13.63;;;;;;;;;;5075186;28;20071;-90
2022/09/08 01:03:46;;;;;;;16.98;14.65;;;;;;;;;;5058724;28;20048;-84
2022/09/08 01:12:46;;;;;;;22.00;15.45;;;16.90;99.90;;;;;;5055098;28;20050;-84
2022/09/08 01:15:21;;;;;;;15.95;14.25;;;16.90;99.90;;;;;;5055100;28;20048;-84
2022/09/08 01:17:51;;;;;;;17.50;14.73;;;16.70;99.90;;;;;;5062257;28;20044;-83
2022/09/08 01:20:19;;;;;;;21.38;16.05;;;16.90;99.90;;;;;;5058020;28;20075;-82
2022/09/08 01:22:45;;;;;;;16.95;14.77;;;;;;;;;;5074523;28;20055;-84
2022/09/08 01:25:35;;;;;;;17.88;14.52;;;17.00;99.90;;;;;;5074640;28;20127;-82
2022/09/08 01:28:27;;;;;;;17.13;15.30;;;16.80;99.90;;;;;;5072600;28;20054;-84
2022/09/08 01:30:54;;;;;;;20.70;15.60;;;16.80;99.90;;;;;;5057793;28;20512;-86
2022/09/08 01:33:20;;;;;;;19.13;15.80;;;;;;;;;;5072886;28;20047;-84
2022/09/08 01:35:46;;;;;;;19.77;17.20;;;;;;;;;;5074467;28;20040;-85
2022/09/08 01:38:12;;;;;;;18.42;16.50;;;;;;;;;;5073569;28;20040;-88
2022/09/08 01:40:38;;;;;;;22.73;16.38;;;16.80;99.90;;;;;;5073896;28;20074;-84
2022/09/08 01:43:07;;;;;;;18.15;16.25;;;16.90;99.90;;;;;;5058088;28;20040;-86
2022/09/08 01:45:34;;;;;;;19.50;16.25;;;16.70;99.90;;;;;;5074232;28;20055;-83
2022/09/08 01:48:00;;;;;;;19.65;17.60;;;;;;;;;;5074699;28;20044;-90
2022/09/08 01:50:26;;;;;;;20.17;16.63;;;;;;;;;;5074775;28;20052;-84
2022/09/08 01:52:52;;;;;;;20.75;17.30;;;;;;;;;;5058035;28;20040;-83
2022/09/08 01:55:18;;;;;;;24.95;19.52;;;16.80;99.90;;;;;;5058080;28;20048;-82
2022/09/08 01:57:44;;;;;;;21.48;18.25;;;;;;;;;;5074542;28;20385;-84
2022/09/08 02:00:10;;;;;;;20.60;18.42;;;16.60;99.90;;;;;;5073888;28;20040;-84
2022/09/08 02:02:36;;;;;;;24.83;19.80;;;;;;;;;;5074448;28;20043;-80
2022/09/08 02:05:03;;;;;;;20.65;18.33;;;16.40;99.90;;;;;;5074618;28;20044;-80
2022/09/08 02:07:31;;;;;;;23.73;19.17;;;16.50;99.90;;;;;;5057407;28;20048;-80
2022/09/08 02:09:57;;;;;;;23.63;20.35;;;;;;;;;;5073997;28;20066;-81
2022/09/08 02:12:23;;;;;;;25.52;20.40;;;;;;;;;;5057625;28;20043;-81
2022/09/08 02:14:49;;;;;;;23.10;19.77;;;;;;;;;;5053432;28;20464;-85
2022/09/08 02:17:15;;;;;;;27.63;20.20;;;;;;;;;;5054063;28;20140;-81
2022/09/08 02:19:41;;;;;;;26.73;20.67;;;16.80;99.90;;;;;;5053947;28;20036;-81
2022/09/08 02:22:07;;;;;;;27.75;21.98;;;;;;;;;;5048160;28;20109;-84
2022/09/08 02:24:33;;;;;;;26.88;19.52;;;;;;;;;;5056817;28;20393;-85
2022/09/08 02:26:59;;;;;;;22.75;20.40;;;;;;;;;;5057096;28;20090;-84
2022/09/08 02:29:26;;;;;;;32.90;22.58;;;;;;;;;;5056924;28;20056;-85
2022/09/08 02:31:52;;;;;;;29.58;22.08;;;;;;;;;;5073027;28;20040;-84
2022/09/08 02:34:18;;;;;;;31.65;24.15;;;16.40;99.90;;;;;;5073751;28;20075;-85
2022/09/08 02:36:44;;;;;;;30.23;23.73;;;;;;;;;;5073653;28;20086;-86
2022/09/08 02:39:17;;;;;;;31.05;23.67;;;16.90;99.90;;;;;;5071289;28;20062;-84
2022/09/08 02:41:43;;;;;;;31.58;22.60;;;;;;;;;;5114738;28;20043;-86
2022/09/08 02:44:11;;;;;;;34.67;24.45;;;16.80;99.90;;;;;;5096928;27;20460;-83
2022/09/08 02:46:38;;;;;;;33.97;26.90;;;;;;;;;;5118558;27;20495;-85
2022/09/08 02:49:04;;;;;;;31.33;25.60;;;;;;;;;;5118413;27;20050;-85
2022/09/08 02:51:31;;;;;;;32.70;26.13;;;17.10;99.90;;;;;;5101484;27;20043;-81
2022/09/08 02:53:57;;;;;;;31.58;26.13;;;;;;;;;;5092295;28;20036;-85
2022/09/08 02:56:23;;;;;;;52.88;27.17;;;;;;;;;;5098139;28;20045;-84
2022/09/08 02:58:49;;;;;;;32.58;25.35;;;17.10;99.90;;;;;;5097973;28;20032;-86
2022/09/08 03:01:15;;;;;;;34.95;27.60;;;17.10;99.90;;;;;;5114924;28;20073;-84
2022/09/08 03:03:41;;;;;;;34.20;26.27;;;;;;;;;;5099038;27;20477;-88
2022/09/08 03:06:07;;;;;;;33.58;26.65;;;17.10;99.90;;;;;;5098229;28;20070;-88
2022/09/08 03:08:33;;;;;;;37.53;25.88;;;;;;;;;;5097823;28;20160;-88
2022/09/08 03:11:00;;;;;;;35.95;27.23;;;17.10;99.90;;;;;;5098417;28;20406;-89
2022/09/08 03:13:26;;;;;;;35.75;28.27;;;;;;;;;;5080840;28;20043;-89
2022/09/08 03:15:52;;;;;;;37.05;27.95;;;;;;;;;;5092857;28;20131;-89
2022/09/08 03:18:19;;;;;;;33.97;26.90;;;;;;;;;;5114562;28;20047;-90
2022/09/08 03:20:45;;;;;;;38.00;28.67;;;;;;;;;;5097795;28;20083;-85
2022/09/08 03:23:20;;;;;;;33.17;27.33;;;17.10;99.90;;;;;;5080263;28;20116;-85
2022/09/08 03:25:47;;;;;;;36.05;28.73;;;17.20;99.90;;;;;;5087610;27;20104;-87
2022/09/08 03:28:24;;;;;;;34.80;27.08;;;17.20;99.90;;;;;;5117956;27;20049;-88
2022/09/08 03:30:50;;;;;;;37.40;29.10;;;;;;;;;;5118029;27;20133;-86
2022/09/08 03:33:17;;;;;;;36.25;28.63;;;;;;;;;;5117779;27;20043;-86
2022/09/08 03:35:43;;;;;;;41.58;30.67;;;;;;;;;;5116837;27;20047;-82
2022/09/08 03:38:09;;;;;;;37.08;29.73;;;;;;;;;;5117783;27;20403;-81
2022/09/08 03:40:35;;;;;;;36.58;29.48;;;;;;;;;;5117578;27;20047;-83
2022/09/08 03:43:01;;;;;;;39.60;31.42;;;;;;;;;;5117599;27;20050;-84
2022/09/08 03:45:28;;;;;;;36.45;28.13;;;17.20;99.90;;;;;;5100784;27;20130;-88
2022/09/08 03:47:55;;;;;;;37.92;29.42;;;;;;;;;;5116703;27;20051;-86
2022/09/08 03:50:21;;;;;;;32.58;26.48;;;;;;;;;;5096290;28;20043;-81
2022/09/08 03:52:49;;;;;;;37.20;29.10;;;17.30;99.90;;;;;;5114568;27;20544;-81
2022/09/08 03:55:15;;;;;;;36.80;29.70;;;17.30;99.90;;;;;;5113482;27;20039;-83
2022/09/08 03:57:41;;;;;;;36.72;31.25;;;;;;;;;;5116332;27;20053;-85
2022/09/08 04:00:09;;;;;;;36.55;30.02;;;17.10;99.90;;;;;;5117488;27;20147;-82
2022/09/08 04:02:35;;;;;;;37.95;29.48;;;;;;;;;;5117408;27;20441;-82
2022/09/08 04:05:01;;;;;;;41.05;30.67;;;;;;;;;;5116466;27;20096;-81
2022/09/08 04:07:29;;;;;;;38.83;29.60;;;17.30;99.90;;;;;;5117094;27;20043;-84
2022/09/08 04:09:56;;;;;;;38.35;28.40;;;;;;;;;;5099819;27;20074;-83
2022/09/08 04:12:23;;;;;;;39.08;29.52;;;17.40;99.90;;;;;;5116991;27;20035;-84
2022/09/08 04:14:49;;;;;;;39.00;31.23;;;;;;;;;;5099128;27;20039;-85
2022/09/08 04:17:16;;;;;;;41.50;30.10;;;17.50;99.90;;;;;;5116452;27;20092;-86
2022/09/08 04:19:43;;;;;;;36.90;29.50;;;;;;;;;;5099528;27;20088;-84
2022/09/08 04:22:10;;;;;;;36.63;30.13;;;;;;;;;;5116916;27;20039;-85
2022/09/08 04:24:36;;;;;;;37.55;31.42;;;;;;;;;;5116875;27;20487;-85
2022/09/08 04:27:02;;;;;;;41.33;30.38;;;17.50;99.90;;;;;;5116833;27;20039;-84
2022/09/08 04:29:28;;;;;;;39.15;29.65;;;;;;;;;;5113067;27;20057;-89
2022/09/08 04:31:54;;;;;;;37.53;30.85;;;;;;;;;;5095543;28;20156;-88
2022/09/08 04:34:20;;;;;;;44.28;30.88;;;;;;;;;;5114362;27;20067;-89
2022/09/08 04:36:47;;;;;;;38.63;31.58;;;;;;;;;;5116828;27;20039;-89
2022/09/08 04:39:13;;;;;;;42.08;32.45;;;17.50;99.90;;;;;;5116390;27;20062;-88
2022/09/08 04:41:39;;;;;;;38.50;31.67;;;;;;;;;;5097245;27;20495;-83
2022/09/08 04:44:06;;;;;;;35.60;30.02;;;;;;;;;;5099929;27;20051;-84
2022/09/08 04:46:33;;;;;;;39.85;30.83;;;17.40;99.90;;;;;;5100244;27;20450;-84
2022/09/08 04:48:59;;;;;;;37.00;31.15;;;;;;;;;;5116406;27;20043;-85
2022/09/08 04:51:27;;;;;;;40.60;31.75;;;17.40;99.90;;;;;;5115592;27;20111;-82
2022/09/08 04:53:55;;;;;;;40.63;31.38;;;;;;;;;;5116072;27;20037;-88
2022/09/08 04:56:22;;;;;;;43.28;33.53;;;17.50;99.90;;;;;;5116460;27;20499;-88
2022/09/08 04:58:48;;;;;;;44.83;30.55;;;;;;;;;;5099436;27;20130;-84
2022/09/08 05:01:19;;;;;;;41.50;32.97;;;17.50;99.90;;;;;;5116604;27;20406;-88
2022/09/08 05:03:46;;;;;;;44.15;32.88;;;17.60;99.90;;;;;;5116255;27;20031;-81
2022/09/08 05:06:16;;;;;;;41.60;33.78;;;17.50;99.90;;;;;;5098592;27;20036;-88
2022/09/08 05:08:46;;;;;;;44.47;33.53;;;17.50;99.90;;;;;;5114750;27;20039;-88
2022/09/08 05:11:13;;;;;;;38.53;31.98;;;17.40;99.90;;;;;;5094786;28;20515;-87
2022/09/08 05:13:39;;;;;;;40.40;31.77;;;;;;;;;;5095512;28;20040;-85
2022/09/08 05:16:13;;;;;;;41.47;30.25;;;17.60;99.90;;;;;;5095673;28;20487;-84
2022/09/08 05:18:39;;;;;;;41.13;30.83;;;;;;;;;;5078622;28;20085;-82
2022/09/08 05:21:07;;;;;;;44.50;33.53;;;17.50;99.90;;;;;;5096781;27;20039;-87
2022/09/08 05:23:33;;;;;;;44.05;32.78;;;;;;;;;;5115357;27;20074;-88
2022/09/08 05:26:08;;;;;;;44.03;33.05;;;17.40;99.90;;;;;;5115568;27;20499;-81
2022/09/08 05:28:37;;;;;;;41.47;31.98;;;17.40;99.90;;;;;;5098497;27;20047;-85
2022/09/08 05:31:03;;;;;;;37.72;30.92;;;;;;;;;;5114251;27;20058;-87
2022/09/08 05:33:30;;;;;;;44.50;33.40;;;17.40;99.90;;;;;;5108476;28;20404;-89
2022/09/08 05:35:56;;;;;;;42.40;31.75;;;;;;;;;;5104806;27;20172;-86
2022/09/08 05:38:22;;;;;;;42.22;32.15;;;;;;;;;;5114951;27;20039;-86
2022/09/08 05:40:48;;;;;;;41.28;31.33;;;17.50;99.90;;;;;;5098164;27;20079;-86
2022/09/08 05:43:15;;;;;;;44.40;32.88;;;17.40;99.90;;;;;;5115439;27;20047;-84
2022/09/08 05:45:48;;;;;;;42.47;32.05;;;17.40;99.90;;;;;;5111256;27;20458;-84
2022/09/08 05:48:14;;;;;;;;;;;17.50;99.90;;;;;;5098347;27;20058;-85
2022/09/08 05:50:44;;;;;;;41.63;32.40;;;17.30;99.90;;;;;;5115118;27;19923;-83
2022/09/08 05:53:11;;;;;;;50.55;33.53;;;;;;;;;;5115053;27;20080;-84
2022/09/08 05:55:37;;;;;;;50.95;33.63;;;;;;;;;;5114059;27;20051;-84
2022/09/08 05:58:03;;;;;;;68.90;35.72;;;;;;;;;;5097845;27;20053;-85
2022/09/08 06:00:29;;;;;;;70.30;36.72;;;;;;;;;;5098097;27;20051;-85
2022/09/08 06:02:55;;;;;;;47.20;33.97;;;;;;;;;;5114578;27;20552;-84
2022/09/08 06:05:22;;;;;;;40.80;31.85;;;17.60;99.90;;;;;;5097046;27;20043;-85
2022/09/08 06:07:49;;;;;;;41.60;32.38;;;17.40;99.90;;;;;;5097351;27;20046;-86
2022/09/08 06:10:18;;;;;;;51.13;36.42;;;17.60;99.90;;;;;;5114787;27;20050;-85
2022/09/08 06:12:44;;;;;;;47.95;35.47;;;;;;;;;;5097594;27;20039;-85
2022/09/08 06:15:10;;;;;;;46.22;34.70;;;17.60;99.90;;;;;;5114970;27;20078;-85
2022/09/08 06:17:36;;;;;;;45.75;35.05;;;;;;;;;;5113922;27;20051;-85
2022/09/08 06:20:03;;;;;;;45.80;35.30;;;17.60;99.90;;;;;;5097399;27;20085;-83
2022/09/08 06:22:32;;;;;;;47.95;34.65;;;17.70;99.90;;;;;;5114844;27;20116;-88
2022/09/08 06:24:59;;;;;;;50.13;36.17;;;17.50;99.90;;;;;;5114425;28;20077;-84
2022/09/08 06:27:41;;;;;;;46.33;34.83;;;17.50;99.90;;;;;;5113261;28;20322;-88
2022/09/08 06:30:11;;;;;;;42.53;34.22;;;17.60;99.90;;;;;;5086133;28;20484;-86
2022/09/08 06:32:43;;;;;;;45.75;34.58;;;17.60;99.90;;;;;;5097464;28;20050;-87
2022/09/08 06:35:15;;;;;;;47.42;34.70;;;17.50;99.90;;;;;;5115613;28;20065;-81
2022/09/08 06:37:47;;;;;;;44.85;34.25;;;17.50;99.90;;;;;;5093870;28;20035;-81
2022/09/08 06:40:13;;;;;;;47.53;36.38;;;;;;;;;;5094016;28;20126;-87
2022/09/08 06:43:03;;;;;;;50.92;37.80;;;17.50;99.90;;;;;;5094537;28;20472;-80
2022/09/08 06:45:34;;;;;;;50.13;36.17;;;17.50;99.90;;;;;;5104070;28;20057;-82
2022/09/08 06:48:20;;;;;;;44.00;35.85;;;17.50;99.90;;;;;;5113710;28;20183;-85
2022/09/08 06:51:01;;;;;;;47.83;36.15;;;17.60;99.90;;;;;;5115165;28;20054;-84
2022/09/08 06:53:43;;;;;;;53.22;38.08;;;17.60;99.90;;;;;;5114969;28;20031;-85
2022/09/08 06:56:48;;;;;;;47.78;36.42;;;17.60;99.90;;;;;;5113525;28;20516;-80
2022/09/08 06:59:39;;;;;;;46.15;35.72;;;17.60;99.90;;;;;;5114099;28;20130;-84
2022/09/08 07:02:26;;;;;;;47.75;36.78;;;17.60;99.90;;;;;;5110683;28;20086;-85
2022/09/08 07:04:59;;;;;;;60.45;39.05;;;17.50;99.90;;;;;;5110574;28;20036;-83
2022/09/08 07:08:14;;;;;;;55.97;40.28;;;17.60;99.90;;;;;;5091067;28;20493;-81
2022/09/08 07:10:54;;;;;;;54.47;39.45;;;17.60;99.90;;;;;;4934920;29;20058;-84
2022/09/08 07:13:45;;;;;;;47.08;35.05;;;17.70;99.90;;;;;;4935230;29;20055;-84
2022/09/08 07:16:35;;;;;;;47.58;35.90;;;17.70;99.90;;;;;;4934123;28;20178;-84
2022/09/08 07:19:25;;;;;;;49.63;37.55;;;17.30;99.90;;;;;;4935512;29;20371;-82
2022/09/08 07:22:09;;;;;;;47.25;37.13;;;17.50;99.90;;;;;;4935400;29;20047;-82
2022/09/08 07:24:41;;;;;;;52.30;36.38;;;17.50;99.90;;;;;;4951063;28;20134;-84
2022/09/08 07:27:12;;;;;;;52.28;36.58;;;17.60;99.90;;;;;;4949951;28;20116;-82
2022/09/08 07:29:47;;;;;;;51.38;37.80;;;17.60;99.90;;;;;;4933902;29;20077;-82
2022/09/08 07:32:19;;;;;;;47.33;35.42;;;17.60;99.90;;;;;;4936578;29;20099;-86
2022/09/08 07:34:52;;;;;;;51.20;37.05;;;17.60;99.90;;;;;;4954555;29;20063;-86
2022/09/08 07:37:27;;;;;;;53.45;36.80;;;17.60;99.90;;;;;;4938462;29;20049;-84
2022/09/08 07:40:16;;;;;;;49.20;36.15;;;17.30;99.90;;;;;;4921711;28;20059;-87
2022/09/08 07:42:43;;;;;;;48.80;35.42;;;17.50;99.90;;;;;;4919291;29;20043;-86
2022/09/08 07:45:12;;;;;;;47.30;35.20;;;17.60;99.90;;;;;;4931599;29;20083;-86
2022/09/08 07:47:51;;;;;;;47.90;36.15;;;17.70;99.90;;;;;;5029754;28;20055;-86
2022/09/08 07:51:03;;;;;;;44.22;35.17;;;17.50;99.90;;;;;;5097090;28;20391;-88
2022/09/08 07:53:38;;;;;;;43.35;33.13;;;17.60;99.90;;;;;;5093855;28;20049;-88
2022/09/08 07:56:13;;;;;;;44.15;33.33;;;17.50;99.90;;;;;;5113632;27;20104;-87
2022/09/08 07:59:08;;;;;;;42.55;32.83;;;17.40;99.90;;;;;;5117435;27;20047;-86
2022/09/08 08:01:55;;;;;;;41.42;32.58;;;17.50;99.90;;;;;;5117601;27;20051;-82
2022/09/08 08:04:21;;;;;;;45.78;31.08;;;;;;;;;;5117881;27;20043;-89
2022/09/08 08:06:53;;;;;;;41.00;30.42;;;17.40;99.90;;;;;;5116774;27;20514;-89
2022/09/08 08:09:34;;;;;;;42.03;31.10;;;17.40;99.90;;;;;;5117477;27;20050;-87
2022/09/08 08:12:27;;;;;;;37.75;29.13;;;17.30;99.90;;;;;;5100513;27;20513;-85
2022/09/08 08:15:01;;;;;;;38.70;28.57;;;17.30;99.90;;;;;;5117307;27;20095;-89
2022/09/08 08:17:39;;;;;;;35.55;26.92;;;17.30;99.90;;;;;;5096012;28;20044;-86
2022/09/08 08:20:29;;;;;;;27.00;21.17;;;17.40;99.90;;;;;;5115492;28;20042;-89
2022/09/08 08:22:56;;;;;;;16.25;12.93;;;;;;;;;;5097068;28;20508;-89
2022/09/08 08:25:22;;;;;;;13.93;10.07;;;;;;;;;;5097088;28;20040;-92
2022/09/08 08:27:58;;;;;;;13.80;9.70;;;17.10;99.90;;;;;;5111320;27;20047;-91
2022/09/08 08:30:25;;;;;;;12.43;9.50;;;;;;;;;;5117415;27;20085;-92
2022/09/08 08:33:24;;;;;;;8.73;7.82;;;17.00;99.90;;;;;;5117289;27;20042;-91
2022/09/08 08:35:55;;;;;;;9.07;7.93;;;16.60;99.90;;;;;;5055323;28;20059;-91
2022/09/08 08:38:29;;;;;;;10.18;8.07;;;17.10;99.90;;;;;;5034213;28;20090;-91
2022/09/08 08:40:58;;;;;;;8.98;7.65;;;16.90;99.90;;;;;;5055505;28;20048;-90
2022/09/08 08:43:24;;;;;;;10.07;8.45;;;;;;;;;;5055565;28;20075;-91
2022/09/08 08:46:01;;;;;;;9.27;7.53;;;16.90;99.90;;;;;;5055603;28;20541;-90
2022/09/08 08:48:58;;;;;;;6.80;5.53;;;16.90;99.90;;;;;;5052025;28;20729;-85
2022/09/08 08:51:44;;;;;;;6.15;5.60;;;17.00;99.90;;;;;;5056414;28;20417;-90
2022/09/08 08:54:43;;;;;;;6.60;5.88;;;16.80;99.90;;;;;;5038836;28;20109;-89
2022/09/08 08:57:36;;;;;;;8.23;7.10;;;16.80;99.90;;;;;;5055921;28;20043;-91
2022/09/08 09:00:18;;;;;;;11.25;8.63;;;16.90;99.90;;;;;;5034897;28;20198;-91
2022/09/08 09:03:08;;;;;;;11.23;9.70;;;16.80;99.90;;;;;;5040343;28;20047;-91
2022/09/08 09:05:50;;;;;;;10.70;8.80;;;16.90;99.90;;;;;;5055413;28;20067;-81
2022/09/08 09:08:57;;;;;;;9.70;7.85;;;16.70;99.90;;;;;;5037373;28;20044;-82
2022/09/08 09:11:26;;;;;;;7.20;6.50;;;16.70;99.90;;;;;;5053980;28;20048;-81
2022/09/08 09:14:34;;;;;;;12.60;7.32;;;16.70;99.90;;;;;;5093977;27;20047;-83
2022/09/08 09:17:31;;;;;;;7.28;6.43;;;16.70;99.90;;;;;;5115878;27;20035;-80
2022/09/08 09:20:25;;;;;;;7.15;5.05;;;16.80;99.90;;;;;;5114594;27;20043;-82
2022/09/08 09:22:55;;;;;;;4.43;3.95;;;16.60;99.90;;;;;;5099346;27;20046;-81
2022/09/08 09:25:21;;;;;;;3.72;3.00;;;;;;;;;;5115141;27;20095;-81
2022/09/08 09:28:20;;;;;;;3.45;2.80;;;16.70;99.90;;;;;;5098968;27;20042;-84
2022/09/08 09:30:46;;;;;;;3.10;2.78;;;16.80;99.90;;;;;;5097943;27;20051;-81
2022/09/08 09:33:54;;;;;;;2.80;2.53;;;17.00;99.90;;;;;;5114484;27;20155;-81
2022/09/08 09:36:27;;;;;;;3.28;2.97;;;16.80;99.90;;;;;;5116773;27;20047;-80
2022/09/08 09:39:19;;;;;;;3.47;3.17;;;16.80;99.90;;;;;;5117441;27;20111;-81
2022/09/08 09:42:03;;;;;;;4.18;3.70;;;16.40;99.90;;;;;;5113923;27;20035;-84
2022/09/08 09:45:02;;;;;;;4.70;3.92;;;17.00;99.90;;;;;;5099465;27;20047;-83
2022/09/08 09:47:50;;;;;;;4.25;3.78;;;17.20;99.90;;;;;;5099049;27;20069;-80
2022/09/08 09:50:43;;;;;;;4.68;4.18;;;16.90;99.90;;;;;;5098370;27;20039;-81
2022/09/08 09:53:27;;;;;;;4.47;4.07;;;17.00;99.90;;;;;;5113691;27;20043;-85
2022/09/08 09:56:14;;;;;;;4.57;4.15;;;17.20;99.90;;;;;;5114904;27;20043;-90
2022/09/08 09:58:54;;;;;;;5.25;4.75;;;17.10;99.90;;;;;;5115726;27;20042;-88
2022/09/08 10:01:53;;;;;;;4.85;4.38;;;17.20;99.90;;;;;;5098943;27;20043;-82
2022/09/08 10:04:43;;;;;;;5.32;4.82;;;17.20;99.90;;;;;;5097159;27;20039;-89
2022/09/08 10:07:24;;;;;;;4.57;4.07;;;17.20;99.90;;;;;;5098513;27;20504;-87
2022/09/08 10:09:56;;;;;;;4.00;3.53;;;17.30;99.90;;;;;;5115630;27;20049;-90
2022/09/08 10:12:40;;;;;;;4.65;4.00;;;17.40;99.90;;;;;;5115311;27;20047;-90
2022/09/08 10:15:30;;;;;;;4.65;4.25;;;17.40;99.90;;;;;;5130234;27;20035;-90
2022/09/08 10:18:08;;;;;;;5.25;4.22;;;17.20;99.90;;;;;;5115172;27;20039;-88
2022/09/08 10:21:09;;;;;;;5.05;4.43;;;17.20;99.90;;;;;;5115484;27;20149;-90
2022/09/08 10:23:43;;;;;;;4.30;3.90;;;17.40;99.90;;;;;;5096166;27;20039;-90
2022/09/08 10:26:09;;;;;;;6.07;4.55;;;;;;;;;;5094314;28;20112;-82
2022/09/08 10:28:35;;;;;;;5.40;4.45;;;;;;;;;;5094299;28;20138;-91
2022/09/08 10:31:39;;;;;;;4.43;3.97;;;17.10;99.90;;;;;;5111362;28;20517;-91
2022/09/08 10:34:10;;;;;;;7.13;4.22;;;17.20;99.90;;;;;;5077306;28;20487;-90
2022/09/08 10:37:04;;;;;;;4.75;4.15;;;17.30;99.90;;;;;;5110193;28;20075;-86
2022/09/08 10:39:58;;;;;;;5.60;4.30;;;17.40;99.90;;;;;;5111208;28;20073;-89
2022/09/08 10:43:04;;;;;;;5.13;4.53;;;17.30;99.90;;;;;;5054439;28;20047;-91
2022/09/08 10:45:51;;;;;;;4.50;4.10;;;17.10;99.90;;;;;;5096912;28;20045;-89
2022/09/08 10:48:35;;;;;;;5.13;4.65;;;17.40;99.90;;;;;;5091353;28;20051;-90
2022/09/08 10:51:21;;;;;;;6.18;5.00;;;17.60;99.90;;;;;;5097634;28;20040;-89
2022/09/08 10:53:56;;;;;;;5.15;4.57;;;17.30;99.90;;;;;;5115179;28;20506;-91
2022/09/08 10:56:28;;;;;;;6.15;4.85;;;17.50;99.90;;;;;;5093591;28;20062;-90
2022/09/08 10:59:09;;;;;;;5.72;4.72;;;17.40;99.90;;;;;;5077949;28;20122;-86
2022/09/08 11:02:09;;;;;;;6.00;4.35;;;17.30;99.90;;;;;;5094583;28;20054;-89
2022/09/08 11:05:06;;;;;;;4.82;4.43;;;17.40;99.90;;;;;;5074267;28;20082;-86
2022/09/08 11:07:59;;;;;;;4.45;3.97;;;17.40;99.90;;;;;;5105070;28;20036;-91
2022/09/08 11:10:25;;;;;;;9.63;4.97;;;17.40;99.90;;;;;;5115286;27;20043;-90
2022/09/08 11:13:25;;;;;;;4.82;3.83;;;17.40;99.90;;;;;;5118814;27;20126;-90
2022/09/08 11:16:21;;;;;;;4.60;3.83;;;17.60;99.90;;;;;;5098659;27;20047;-92
2022/09/08 11:19:20;;;;;;;3.90;3.60;;;17.60;99.90;;;;;;5085582;28;20611;-91
2022/09/08 11:21:52;;;;;;;6.60;4.40;;;17.70;99.90;;;;;;5097868;28;20051;-85
2022/09/08 11:24:46;;;;;;;4.80;4.38;;;17.50;99.90;;;;;;5114260;28;20044;-82
2022/09/08 11:27:21;;;;;;;4.80;3.85;;;17.50;99.90;;;;;;5098348;28;20050;-85
2022/09/08 11:30:12;;;;;;;5.68;3.33;;;17.50;99.90;;;;;;5097198;28;20057;-86
2022/09/08 11:33:06;;;;;;;7.72;3.13;;;17.40;99.90;;;;;;5097793;28;20126;-86
2022/09/08 11:35:44;;;;;;;5.65;3.83;;;17.60;99.90;;;;;;5097949;28;20043;-85
2022/09/08 11:38:28;;;;;;;4.47;3.30;;;17.40;99.90;;;;;;5093317;27;20051;-85
2022/09/08 11:41:31;;;;;;;5.47;3.30;;;17.50;99.90;;;;;;5100243;27;20051;-86
2022/09/08 11:44:05;;;;;;;4.15;3.78;;;17.10;99.90;;;;;;5100482;27;20073;-86
2022/09/08 11:47:17;;;;;;;6.95;3.63;;;17.50;99.90;;;;;;5117498;27;20047;-86
2022/09/08 11:50:20;;;;;;;7.90;3.13;;;17.40;99.90;;;;;;5097645;27;20111;-86
2022/09/08 11:53:18;;;;;;;7.85;3.20;;;17.50;99.90;;;;;;5116427;27;20043;-82
2022/09/08 11:56:08;;;;;;;3.40;2.75;;;17.50;99.90;;;;;;5099346;27;20077;-85
2022/09/08 11:58:45;;;;;;;10.52;3.00;;;17.50;99.90;;;;;;5100317;27;20492;-84
2022/09/08 12:01:42;;;;;;;5.88;3.05;;;17.10;99.90;;;;;;5100434;27;20042;-83
2022/09/08 12:04:10;;;;;;;4.93;3.00;;;17.10;99.90;;;;;;5099996;27;20039;-84
2022/09/08 12:06:55;;;;;;;5.53;2.90;;;17.30;99.90;;;;;;5116007;27;20074;-84
2022/09/08 12:09:36;;;;;;;5.45;3.30;;;17.60;99.90;;;;;;5099781;27;20047;-84
2022/09/08 12:12:20;;;;;;;3.78;2.50;;;17.60;99.90;;;;;;5100127;27;20543;-85
2022/09/08 12:15:04;;;;;;;;;;;17.70;99.90;;;;;;5117270;27;20053;-85
2022/09/08 12:17:52;;;;;;;3.25;2.95;;;17.50;99.90;;;;;;5099345;28;20382;-85
2022/09/08 12:21:08;;;;;;;4.00;3.45;;;17.60;99.90;;;;;;5110724;27;20406;-82
2022/09/08 12:24:09;;;;;;;4.78;2.63;;;17.60;99.90;;;;;;5071887;28;20523;-85
2022/09/08 12:26:58;;;;;;;5.72;3.47;;;17.60;99.90;;;;;;5033495;28;20041;-91
2022/09/08 12:29:24;;;;;;;4.70;3.20;;;;;;;;;;5054903;28;20045;-82
2022/09/08 12:32:02;;;;;;;6.57;3.22;;;17.80;99.90;;;;;;5055431;28;20052;-91
2022/09/08 12:34:28;;;;;;;4.53;3.50;;;;;;;;;;5038626;28;20048;-91
2022/09/08 12:37:21;;;;;;;4.63;3.97;;;17.70;99.90;;;;;;5051947;28;20089;-87
2022/09/08 12:40:17;;;;;;;8.10;3.58;;;17.70;99.90;;;;;;5034836;28;20057;-90
2022/09/08 12:42:43;;;;;;;4.35;3.83;;;;;;;;;;5018954;28;20179;-89
2022/09/08 12:45:35;;;;;;;5.45;3.63;;;17.70;99.90;;;;;;5051872;28;20533;-81
2022/09/08 12:48:06;;;;;;;4.18;3.50;;;17.80;99.90;;;;;;5053011;28;20098;-89
2022/09/08 12:50:45;;;;;;;5.38;4.43;;;17.90;99.90;;;;;;5054869;28;20143;-90
2022/09/08 12:53:26;;;;;;;5.47;4.25;;;17.90;99.90;;;;;;5038005;28;20040;-91
2022/09/08 12:55:52;;;;;;;4.40;3.97;;;;;;;;;;5038003;28;20048;-91
2022/09/08 12:58:22;;;;;;;5.68;4.63;;;17.50;99.90;;;;;;5086645;27;20411;-91
2022/09/08 13:00:57;;;;;;;8.35;4.60;;;17.70;99.90;;;;;;5112893;28;20450;-91
2022/09/08 13:03:41;;;;;;;8.50;4.57;;;17.70;99.90;;;;;;5113387;28;20036;-90
2022/09/08 13:06:43;;;;;;;6.30;4.50;;;17.60;99.90;;;;;;5096204;28;20047;-86
2022/09/08 13:09:31;;;;;;;4.90;4.30;;;17.80;99.90;;;;;;5098970;27;20049;-82
2022/09/08 13:12:19;;;;;;;5.43;4.93;;;17.70;99.90;;;;;;5098768;27;20043;-89
2022/09/08 13:14:59;;;;;;;6.03;4.85;;;17.70;99.90;;;;;;5116171;27;20047;-89
2022/09/08 13:17:46;;;;;;;5.28;4.30;;;17.60;99.90;;;;;;5115565;27;20047;-86
2022/09/08 13:20:31;;;;;;;5.07;4.60;;;17.90;99.90;;;;;;5108201;28;20035;-86
2022/09/08 13:23:24;;;;;;;8.93;5.72;;;17.80;99.90;;;;;;5094968;28;20036;-85
2022/09/08 13:26:03;;;;;;;6.72;5.80;;;17.90;99.90;;;;;;5095131;28;20079;-85
2022/09/08 13:28:44;;;;;;;10.48;5.72;;;17.80;99.90;;;;;;5094773;28;20078;-85
2022/09/08 13:31:34;;;;;;;6.43;5.47;;;17.80;99.90;;;;;;5103956;27;20047;-85
2022/09/08 13:34:22;;;;;;;8.77;6.20;;;17.90;99.90;;;;;;5115185;27;20092;-85
2022/09/08 13:36:59;;;;;;;6.40;5.50;;;18.00;99.90;;;;;;5115233;27;20062;-84
2022/09/08 13:40:10;;;;;;;6.53;5.93;;;18.10;99.90;;;;;;5114934;27;20054;-81
2022/09/08 13:42:47;;;;;;;7.18;6.05;;;18.10;99.90;;;;;;5097091;27;20487;-84
2022/09/08 13:45:14;;;;;;;7.60;6.25;;;;;;;;;;5098101;27;20488;-85
2022/09/08 13:48:22;;;;;;;8.60;6.93;;;18.20;99.90;;;;;;5115113;27;20075;-84
2022/09/08 13:51:07;;;;;;;8.90;6.10;;;18.10;99.90;;;;;;5115147;27;20043;-85
2022/09/08 13:53:44;;;;;;;9.15;7.30;;;18.10;99.90;;;;;;5095770;27;20047;-83
2022/09/08 13:56:35;;;;;;;8.15;6.45;;;18.20;99.90;;;;;;5098335;27;20075;-84
2022/09/08 13:59:17;;;;;;;9.13;7.47;;;18.40;99.90;;;;;;5114709;27;20058;-83